sensor_id;sensor_type;location;lat;lon;timestamp;P1;durP1;ratioP1;P2;durP2;ratioP2
40953;SDS011;26686;50.130;8.710;2023-11-18T00:02:20;11.15;;;9.63;;
40953;SDS011;26686;50.130;8.710;2023-11-18T00:07:21;13.18;;;10.10;;
40953;SDS011;26686;50.130;8.710;2023-11-18T00:12:23;13.63;;;11.20;;
40953;SDS011;26686;50.130;8.710;2023-11-18T00:22:30;11.50;;;9.40;;
40953;SDS011;26686;50.130;8.710;2023-11-18T00:27:31;11.25;;;10.15;;
40953;SDS011;26686;50.130;8.710;2023-11-18T00:32:33;11.75;;;9.88;;
40953;SDS011;26686;50.130;8.710;2023-11-18T00:37:35;11.93;;;10.20;;
40953;SDS011;26686;50.130;8.710;2023-11-18T00:42:37;12.18;;;9.68;;
40953;SDS011;26686;50.130;8.710;2023-11-18T00:47:39;11.52;;;10.02;;
40953;SDS011;26686;50.130;8.710;2023-11-18T00:52:42;12.48;;;9.80;;
40953;SDS011;26686;50.130;8.710;2023-11-18T00:57:44;10.95;;;9.65;;
40953;SDS011;26686;50.130;8.710;2023-11-18T01:02:46;12.40;;;10.15;;
40953;SDS011;26686;50.130;8.710;2023-11-18T01:07:52;11.38;;;10.18;;
40953;SDS011;26686;50.130;8.710;2023-11-18T01:12:54;15.57;;;13.15;;
40953;SDS011;26686;50.130;8.710;2023-11-18T01:17:57;17.27;;;13.30;;
40953;SDS011;26686;50.130;8.710;2023-11-18T01:22:58;12.40;;;10.68;;
40953;SDS011;26686;50.130;8.710;2023-11-18T01:28:00;12.88;;;11.55;;
40953;SDS011;26686;50.130;8.710;2023-11-18T01:33:02;12.75;;;10.90;;
40953;SDS011;26686;50.130;8.710;2023-11-18T01:38:03;13.07;;;10.48;;
40953;SDS011;26686;50.130;8.710;2023-11-18T01:43:08;10.75;;;9.73;;
40953;SDS011;26686;50.130;8.710;2023-11-18T01:48:13;11.05;;;9.95;;
40953;SDS011;26686;50.130;8.710;2023-11-18T01:53:16;11.63;;;10.43;;
40953;SDS011;26686;50.130;8.710;2023-11-18T01:58:18;15.10;;;11.30;;
40953;SDS011;26686;50.130;8.710;2023-11-18T02:03:20;12.20;;;10.90;;
40953;SDS011;26686;50.130;8.710;2023-11-18T02:08:23;13.57;;;12.38;;
40953;SDS011;26686;50.130;8.710;2023-11-18T02:13:28;14.35;;;12.32;;
40953;SDS011;26686;50.130;8.710;2023-11-18T02:18:32;14.02;;;12.75;;
40953;SDS011;26686;50.130;8.710;2023-11-18T02:23:35;13.15;;;10.73;;
40953;SDS011;26686;50.130;8.710;2023-11-18T02:28:38;10.85;;;9.75;;
40953;SDS011;26686;50.130;8.710;2023-11-18T02:33:41;9.15;;;8.27;;
40953;SDS011;26686;50.130;8.710;2023-11-18T02:38:53;9.73;;;8.43;;
40953;SDS011;26686;50.130;8.710;2023-11-18T02:43:57;9.43;;;7.68;;
40953;SDS011;26686;50.130;8.710;2023-11-18T02:48:59;8.27;;;7.45;;
40953;SDS011;26686;50.130;8.710;2023-11-18T02:54:00;11.13;;;8.57;;
40953;SDS011;26686;50.130;8.710;2023-11-18T02:59:02;8.52;;;7.75;;
40953;SDS011;26686;50.130;8.710;2023-11-18T03:04:07;8.63;;;7.80;;
40953;SDS011;26686;50.130;8.710;2023-11-18T03:09:09;9.07;;;7.15;;
40953;SDS011;26686;50.130;8.710;2023-11-18T03:14:11;8.20;;;7.45;;
40953;SDS011;26686;50.130;8.710;2023-11-18T03:19:13;8.23;;;7.30;;
40953;SDS011;26686;50.130;8.710;2023-11-18T03:24:15;12.27;;;7.95;;
40953;SDS011;26686;50.130;8.710;2023-11-18T03:29:17;10.10;;;7.47;;
40953;SDS011;26686;50.130;8.710;2023-11-18T03:34:19;8.90;;;8.00;;
40953;SDS011;26686;50.130;8.710;2023-11-18T03:39:21;9.02;;;7.82;;
40953;SDS011;26686;50.130;8.710;2023-11-18T03:44:23;18.35;;;7.82;;
40953;SDS011;26686;50.130;8.710;2023-11-18T03:49:27;9.20;;;7.53;;
40953;SDS011;26686;50.130;8.710;2023-11-18T03:54:28;8.60;;;6.43;;
40953;SDS011;26686;50.130;8.710;2023-11-18T03:59:34;13.82;;;8.00;;
40953;SDS011;26686;50.130;8.710;2023-11-18T04:04:35;8.00;;;6.70;;
40953;SDS011;26686;50.130;8.710;2023-11-18T04:09:37;7.82;;;7.03;;
40953;SDS011;26686;50.130;8.710;2023-11-18T04:14:39;9.65;;;7.93;;
40953;SDS011;26686;50.130;8.710;2023-11-18T04:19:40;7.75;;;6.95;;
40953;SDS011;26686;50.130;8.710;2023-11-18T04:24:42;9.82;;;8.02;;
40953;SDS011;26686;50.130;8.710;2023-11-18T04:29:46;10.10;;;8.50;;
40953;SDS011;26686;50.130;8.710;2023-11-18T04:34:49;10.93;;;8.48;;
40953;SDS011;26686;50.130;8.710;2023-11-18T04:39:52;11.68;;;9.57;;
40953;SDS011;26686;50.130;8.710;2023-11-18T04:44:58;12.77;;;9.27;;
40953;SDS011;26686;50.130;8.710;2023-11-18T04:50:00;12.05;;;9.43;;
40953;SDS011;26686;50.130;8.710;2023-11-18T04:55:02;12.10;;;9.75;;
40953;SDS011;26686;50.130;8.710;2023-11-18T05:05:11;10.98;;;8.90;;
40953;SDS011;26686;50.130;8.710;2023-11-18T05:10:13;10.80;;;8.75;;
40953;SDS011;26686;50.130;8.710;2023-11-18T05:15:17;10.20;;;8.48;;
40953;SDS011;26686;50.130;8.710;2023-11-18T05:20:20;12.15;;;8.73;;
40953;SDS011;26686;50.130;8.710;2023-11-18T05:25:22;10.98;;;8.52;;
40953;SDS011;26686;50.130;8.710;2023-11-18T05:30:23;10.55;;;9.35;;
40953;SDS011;26686;50.130;8.710;2023-11-18T05:35:28;11.95;;;8.98;;
40953;SDS011;26686;50.130;8.710;2023-11-18T05:40:30;9.00;;;7.97;;
40953;SDS011;26686;50.130;8.710;2023-11-18T05:45:31;15.65;;;12.20;;
40953;SDS011;26686;50.130;8.710;2023-11-18T05:50:45;11.90;;;8.90;;
40953;SDS011;26686;50.130;8.710;2023-11-18T05:55:49;12.70;;;9.83;;
40953;SDS011;26686;50.130;8.710;2023-11-18T06:00:51;13.00;;;9.23;;
40953;SDS011;26686;50.130;8.710;2023-11-18T06:05:52;14.30;;;9.93;;
40953;SDS011;26686;50.130;8.710;2023-11-18T06:10:56;18.27;;;13.52;;
40953;SDS011;26686;50.130;8.710;2023-11-18T06:15:58;13.68;;;10.05;;
40953;SDS011;26686;50.130;8.710;2023-11-18T06:21:00;27.05;;;23.17;;
40953;SDS011;26686;50.130;8.710;2023-11-18T06:26:02;18.70;;;12.82;;
40953;SDS011;26686;50.130;8.710;2023-11-18T06:31:04;12.95;;;10.57;;
40953;SDS011;26686;50.130;8.710;2023-11-18T06:36:05;15.45;;;11.43;;
40953;SDS011;26686;50.130;8.710;2023-11-18T06:41:08;13.30;;;11.32;;
40953;SDS011;26686;50.130;8.710;2023-11-18T06:46:13;17.27;;;12.48;;
40953;SDS011;26686;50.130;8.710;2023-11-18T06:51:17;15.90;;;11.55;;
40953;SDS011;26686;50.130;8.710;2023-11-18T06:56:19;14.70;;;11.10;;
40953;SDS011;26686;50.130;8.710;2023-11-18T07:01:20;15.82;;;12.73;;
40953;SDS011;26686;50.130;8.710;2023-11-18T07:06:22;18.85;;;11.50;;
40953;SDS011;26686;50.130;8.710;2023-11-18T07:11:24;33.28;;;13.40;;
40953;SDS011;26686;50.130;8.710;2023-11-18T07:16:25;20.65;;;13.77;;
40953;SDS011;26686;50.130;8.710;2023-11-18T07:21:31;19.40;;;12.38;;
40953;SDS011;26686;50.130;8.710;2023-11-18T07:26:35;16.92;;;12.43;;
40953;SDS011;26686;50.130;8.710;2023-11-18T07:31:37;15.82;;;11.23;;
40953;SDS011;26686;50.130;8.710;2023-11-18T07:36:40;21.67;;;14.38;;
40953;SDS011;26686;50.130;8.710;2023-11-18T07:41:43;22.48;;;14.38;;
40953;SDS011;26686;50.130;8.710;2023-11-18T07:46:45;21.88;;;13.85;;
40953;SDS011;26686;50.130;8.710;2023-11-18T07:51:50;17.60;;;12.15;;
40953;SDS011;26686;50.130;8.710;2023-11-18T07:56:51;21.25;;;12.77;;
40953;SDS011;26686;50.130;8.710;2023-11-18T08:01:58;22.92;;;15.13;;
40953;SDS011;26686;50.130;8.710;2023-11-18T08:07:05;20.80;;;12.65;;
40953;SDS011;26686;50.130;8.710;2023-11-18T08:12:07;16.45;;;11.48;;
40953;SDS011;26686;50.130;8.710;2023-11-18T08:22:14;21.60;;;13.13;;
40953;SDS011;26686;50.130;8.710;2023-11-18T08:27:22;18.45;;;11.95;;
40953;SDS011;26686;50.130;8.710;2023-11-18T08:32:24;18.38;;;12.98;;
40953;SDS011;26686;50.130;8.710;2023-11-18T08:37:26;19.90;;;13.65;;
40953;SDS011;26686;50.130;8.710;2023-11-18T08:42:29;21.70;;;13.13;;
40953;SDS011;26686;50.130;8.710;2023-11-18T08:47:33;22.30;;;13.73;;
40953;SDS011;26686;50.130;8.710;2023-11-18T08:52:35;16.60;;;11.30;;
40953;SDS011;26686;50.130;8.710;2023-11-18T08:57:38;22.90;;;13.80;;
40953;SDS011;26686;50.130;8.710;2023-11-18T09:02:57;19.13;;;12.68;;
40953;SDS011;26686;50.130;8.710;2023-11-18T09:08:02;21.60;;;13.98;;
40953;SDS011;26686;50.130;8.710;2023-11-18T09:18:09;21.88;;;13.98;;
40953;SDS011;26686;50.130;8.710;2023-11-18T09:23:11;20.55;;;14.55;;
40953;SDS011;26686;50.130;8.710;2023-11-18T09:28:15;20.38;;;13.57;;
40953;SDS011;26686;50.130;8.710;2023-11-18T09:33:18;21.42;;;13.73;;
40953;SDS011;26686;50.130;8.710;2023-11-18T09:38:35;19.75;;;13.38;;
40953;SDS011;26686;50.130;8.710;2023-11-18T09:43:38;21.65;;;14.13;;
40953;SDS011;26686;50.130;8.710;2023-11-18T09:48:47;19.95;;;12.93;;
40953;SDS011;26686;50.130;8.710;2023-11-18T09:54:01;19.85;;;13.25;;
40953;SDS011;26686;50.130;8.710;2023-11-18T09:59:22;20.63;;;14.82;;
40953;SDS011;26686;50.130;8.710;2023-11-18T10:04:29;17.63;;;12.80;;
40953;SDS011;26686;50.130;8.710;2023-11-18T10:09:32;19.90;;;14.50;;
40953;SDS011;26686;50.130;8.710;2023-11-18T10:14:41;21.27;;;14.10;;
40953;SDS011;26686;50.130;8.710;2023-11-18T10:19:51;17.30;;;14.02;;
40953;SDS011;26686;50.130;8.710;2023-11-18T10:24:57;19.10;;;14.63;;
40953;SDS011;26686;50.130;8.710;2023-11-18T10:30:02;19.63;;;14.30;;
40953;SDS011;26686;50.130;8.710;2023-11-18T10:35:06;18.90;;;13.57;;
40953;SDS011;26686;50.130;8.710;2023-11-18T10:40:12;17.63;;;14.55;;
40953;SDS011;26686;50.130;8.710;2023-11-18T10:45:23;19.65;;;13.93;;
40953;SDS011;26686;50.130;8.710;2023-11-18T10:50:28;18.02;;;14.93;;
40953;SDS011;26686;50.130;8.710;2023-11-18T10:55:38;18.88;;;14.30;;
40953;SDS011;26686;50.130;8.710;2023-11-18T11:00:49;22.42;;;18.15;;
40953;SDS011;26686;50.130;8.710;2023-11-18T11:05:53;17.38;;;15.07;;
40953;SDS011;26686;50.130;8.710;2023-11-18T11:10:55;16.88;;;13.40;;
40953;SDS011;26686;50.130;8.710;2023-11-18T11:15:59;19.93;;;15.03;;
40953;SDS011;26686;50.130;8.710;2023-11-18T11:21:12;19.77;;;13.68;;
40953;SDS011;26686;50.130;8.710;2023-11-18T11:26:34;14.65;;;12.82;;
40953;SDS011;26686;50.130;8.710;2023-11-18T11:31:49;16.80;;;13.13;;
40953;SDS011;26686;50.130;8.710;2023-11-18T11:37:02;14.43;;;11.40;;
40953;SDS011;26686;50.130;8.710;2023-11-18T11:42:07;18.50;;;12.85;;
40953;SDS011;26686;50.130;8.710;2023-11-18T11:47:10;13.40;;;12.00;;
40953;SDS011;26686;50.130;8.710;2023-11-18T11:52:26;14.80;;;12.30;;
40953;SDS011;26686;50.130;8.710;2023-11-18T11:57:31;17.88;;;13.50;;
40953;SDS011;26686;50.130;8.710;2023-11-18T12:02:47;14.90;;;11.80;;
40953;SDS011;26686;50.130;8.710;2023-11-18T12:07:50;14.63;;;11.50;;
40953;SDS011;26686;50.130;8.710;2023-11-18T12:13:09;13.93;;;12.05;;
40953;SDS011;26686;50.130;8.710;2023-11-18T12:18:18;12.73;;;11.40;;
40953;SDS011;26686;50.130;8.710;2023-11-18T12:23:22;13.50;;;11.93;;
40953;SDS011;26686;50.130;8.710;2023-11-18T12:28:32;14.88;;;12.25;;
40953;SDS011;26686;50.130;8.710;2023-11-18T12:39:20;13.10;;;11.80;;
40953;SDS011;26686;50.130;8.710;2023-11-18T12:50:25;12.07;;;9.88;;
40953;SDS011;26686;50.130;8.710;2023-11-18T12:55:30;11.20;;;9.57;;
40953;SDS011;26686;50.130;8.710;2023-11-18T13:00:32;11.95;;;9.75;;
40953;SDS011;26686;50.130;8.710;2023-11-18T13:05:37;11.75;;;10.18;;
40953;SDS011;26686;50.130;8.710;2023-11-18T13:10:41;12.07;;;10.80;;
40953;SDS011;26686;50.130;8.710;2023-11-18T13:15:46;12.10;;;10.47;;
40953;SDS011;26686;50.130;8.710;2023-11-18T13:20:54;10.68;;;9.57;;
40953;SDS011;26686;50.130;8.710;2023-11-18T13:25:58;10.65;;;9.60;;
40953;SDS011;26686;50.130;8.710;2023-11-18T13:31:07;11.90;;;10.70;;
40953;SDS011;26686;50.130;8.710;2023-11-18T13:36:10;10.77;;;9.45;;
40953;SDS011;26686;50.130;8.710;2023-11-18T13:41:27;14.40;;;12.75;;
40953;SDS011;26686;50.130;8.710;2023-11-18T13:51:31;10.82;;;9.77;;
40953;SDS011;26686;50.130;8.710;2023-11-18T13:56:34;9.63;;;8.00;;
40953;SDS011;26686;50.130;8.710;2023-11-18T14:01:35;9.85;;;8.70;;
40953;SDS011;26686;50.130;8.710;2023-11-18T14:06:38;11.68;;;7.90;;
40953;SDS011;26686;50.130;8.710;2023-11-18T14:11:41;9.15;;;7.80;;
40953;SDS011;26686;50.130;8.710;2023-11-18T14:16:42;10.02;;;8.07;;
40953;SDS011;26686;50.130;8.710;2023-11-18T14:21:44;9.77;;;8.02;;
40953;SDS011;26686;50.130;8.710;2023-11-18T14:26:45;9.25;;;7.72;;
40953;SDS011;26686;50.130;8.710;2023-11-18T14:31:49;8.80;;;6.65;;
40953;SDS011;26686;50.130;8.710;2023-11-18T14:36:51;7.40;;;6.65;;
40953;SDS011;26686;50.130;8.710;2023-11-18T14:41:52;8.10;;;6.28;;
40953;SDS011;26686;50.130;8.710;2023-11-18T14:46:55;6.63;;;5.38;;
40953;SDS011;26686;50.130;8.710;2023-11-18T14:51:57;7.20;;;5.97;;
40953;SDS011;26686;50.130;8.710;2023-11-18T14:56:58;6.00;;;5.40;;
40953;SDS011;26686;50.130;8.710;2023-11-18T15:02:01;5.43;;;4.93;;
40953;SDS011;26686;50.130;8.710;2023-11-18T15:07:02;7.50;;;5.60;;
40953;SDS011;26686;50.130;8.710;2023-11-18T15:12:05;6.60;;;4.97;;
40953;SDS011;26686;50.130;8.710;2023-11-18T15:17:11;4.57;;;4.10;;
40953;SDS011;26686;50.130;8.710;2023-11-18T15:22:19;5.05;;;4.03;;
40953;SDS011;26686;50.130;8.710;2023-11-18T15:27:21;5.55;;;4.15;;
40953;SDS011;26686;50.130;8.710;2023-11-18T15:32:22;4.80;;;4.10;;
40953;SDS011;26686;50.130;8.710;2023-11-18T15:37:25;6.40;;;3.95;;
40953;SDS011;26686;50.130;8.710;2023-11-18T15:42:29;5.65;;;3.67;;
40953;SDS011;26686;50.130;8.710;2023-11-18T15:47:32;4.43;;;3.28;;
40953;SDS011;26686;50.130;8.710;2023-11-18T15:52:34;4.00;;;3.55;;
40953;SDS011;26686;50.130;8.710;2023-11-18T15:57:36;4.45;;;3.58;;
40953;SDS011;26686;50.130;8.710;2023-11-18T16:02:39;5.23;;;4.03;;
40953;SDS011;26686;50.130;8.710;2023-11-18T16:07:42;13.10;;;8.50;;
40953;SDS011;26686;50.130;8.710;2023-11-18T16:12:47;2.97;;;2.65;;
40953;SDS011;26686;50.130;8.710;2023-11-18T16:17:49;6.45;;;2.78;;
40953;SDS011;26686;50.130;8.710;2023-11-18T16:22:52;7.97;;;3.67;;
40953;SDS011;26686;50.130;8.710;2023-11-18T16:27:55;4.00;;;2.10;;
40953;SDS011;26686;50.130;8.710;2023-11-18T16:33:01;6.38;;;4.20;;
40953;SDS011;26686;50.130;8.710;2023-11-18T16:38:05;4.45;;;2.30;;
40953;SDS011;26686;50.130;8.710;2023-11-18T16:43:08;3.20;;;1.80;;
40953;SDS011;26686;50.130;8.710;2023-11-18T16:48:10;3.40;;;1.70;;
40953;SDS011;26686;50.130;8.710;2023-11-18T16:53:12;3.88;;;2.05;;
40953;SDS011;26686;50.130;8.710;2023-11-18T16:58:14;3.47;;;1.80;;
40953;SDS011;26686;50.130;8.710;2023-11-18T17:03:15;3.33;;;2.83;;
40953;SDS011;26686;50.130;8.710;2023-11-18T17:08:17;3.80;;;2.47;;
40953;SDS011;26686;50.130;8.710;2023-11-18T17:13:19;3.38;;;2.85;;
40953;SDS011;26686;50.130;8.710;2023-11-18T17:18:21;3.90;;;3.00;;
40953;SDS011;26686;50.130;8.710;2023-11-18T17:23:23;5.50;;;3.70;;
40953;SDS011;26686;50.130;8.710;2023-11-18T17:28:29;7.00;;;3.97;;
40953;SDS011;26686;50.130;8.710;2023-11-18T17:33:31;5.03;;;3.50;;
40953;SDS011;26686;50.130;8.710;2023-11-18T17:38:33;4.88;;;3.30;;
40953;SDS011;26686;50.130;8.710;2023-11-18T17:43:34;3.78;;;2.95;;
40953;SDS011;26686;50.130;8.710;2023-11-18T17:48:36;3.88;;;3.50;;
40953;SDS011;26686;50.130;8.710;2023-11-18T17:53:37;4.93;;;3.70;;
40953;SDS011;26686;50.130;8.710;2023-11-18T17:58:40;4.28;;;3.45;;
40953;SDS011;26686;50.130;8.710;2023-11-18T18:03:41;6.30;;;3.55;;
40953;SDS011;26686;50.130;8.710;2023-11-18T18:08:44;4.32;;;3.90;;
40953;SDS011;26686;50.130;8.710;2023-11-18T18:13:46;5.43;;;4.18;;
40953;SDS011;26686;50.130;8.710;2023-11-18T18:18:47;5.47;;;3.85;;
40953;SDS011;26686;50.130;8.710;2023-11-18T18:23:48;4.60;;;3.97;;
40953;SDS011;26686;50.130;8.710;2023-11-18T18:28:51;5.60;;;4.55;;
40953;SDS011;26686;50.130;8.710;2023-11-18T18:33:57;9.20;;;4.80;;
40953;SDS011;26686;50.130;8.710;2023-11-18T18:38:59;5.07;;;4.53;;
40953;SDS011;26686;50.130;8.710;2023-11-18T18:44:01;4.63;;;4.22;;
40953;SDS011;26686;50.130;8.710;2023-11-18T18:49:05;5.55;;;5.05;;
40953;SDS011;26686;50.130;8.710;2023-11-18T18:54:08;6.47;;;5.22;;
40953;SDS011;26686;50.130;8.710;2023-11-18T18:59:10;5.97;;;5.00;;
40953;SDS011;26686;50.130;8.710;2023-11-18T19:04:12;5.85;;;5.28;;
40953;SDS011;26686;50.130;8.710;2023-11-18T19:09:14;5.78;;;5.25;;
40953;SDS011;26686;50.130;8.710;2023-11-18T19:14:18;7.07;;;5.73;;
40953;SDS011;26686;50.130;8.710;2023-11-18T19:19:22;6.03;;;5.43;;
40953;SDS011;26686;50.130;8.710;2023-11-18T19:24:23;7.68;;;5.95;;
40953;SDS011;26686;50.130;8.710;2023-11-18T19:29:26;5.55;;;5.00;;
40953;SDS011;26686;50.130;8.710;2023-11-18T19:34:28;5.88;;;5.38;;
40953;SDS011;26686;50.130;8.710;2023-11-18T19:39:29;6.03;;;5.35;;
40953;SDS011;26686;50.130;8.710;2023-11-18T19:44:39;6.10;;;5.38;;
40953;SDS011;26686;50.130;8.710;2023-11-18T19:49:41;5.97;;;5.47;;
40953;SDS011;26686;50.130;8.710;2023-11-18T19:54:43;6.35;;;5.75;;
40953;SDS011;26686;50.130;8.710;2023-11-18T19:59:47;4.47;;;4.07;;
40953;SDS011;26686;50.130;8.710;2023-11-18T20:04:50;6.82;;;4.90;;
40953;SDS011;26686;50.130;8.710;2023-11-18T20:09:53;5.68;;;4.28;;
40953;SDS011;26686;50.130;8.710;2023-11-18T20:14:56;4.60;;;3.23;;
40953;SDS011;26686;50.130;8.710;2023-11-18T20:19:58;4.07;;;3.08;;
40953;SDS011;26686;50.130;8.710;2023-11-18T20:24:59;5.03;;;4.10;;
40953;SDS011;26686;50.130;8.710;2023-11-18T20:30:02;5.35;;;3.33;;
40953;SDS011;26686;50.130;8.710;2023-11-18T20:35:08;6.03;;;3.53;;
40953;SDS011;26686;50.130;8.710;2023-11-18T20:40:14;5.78;;;3.88;;
40953;SDS011;26686;50.130;8.710;2023-11-18T20:45:22;3.85;;;3.45;;
40953;SDS011;26686;50.130;8.710;2023-11-18T20:50:23;4.10;;;3.50;;
40953;SDS011;26686;50.130;8.710;2023-11-18T20:55:25;4.88;;;3.50;;
40953;SDS011;26686;50.130;8.710;2023-11-18T21:00:29;4.40;;;3.67;;
40953;SDS011;26686;50.130;8.710;2023-11-18T21:05:31;4.70;;;4.18;;
40953;SDS011;26686;50.130;8.710;2023-11-18T21:10:34;6.10;;;4.75;;
40953;SDS011;26686;50.130;8.710;2023-11-18T21:15:36;3.63;;;3.28;;
40953;SDS011;26686;50.130;8.710;2023-11-18T21:20:38;4.80;;;4.30;;
40953;SDS011;26686;50.130;8.710;2023-11-18T21:25:41;5.78;;;4.40;;
40953;SDS011;26686;50.130;8.710;2023-11-18T21:30:42;4.90;;;3.95;;
40953;SDS011;26686;50.130;8.710;2023-11-18T21:35:43;4.63;;;3.83;;
40953;SDS011;26686;50.130;8.710;2023-11-18T21:40:46;5.15;;;4.55;;
40953;SDS011;26686;50.130;8.710;2023-11-18T21:45:48;4.60;;;4.20;;
40953;SDS011;26686;50.130;8.710;2023-11-18T21:50:49;5.75;;;4.47;;
40953;SDS011;26686;50.130;8.710;2023-11-18T21:55:52;5.00;;;4.50;;
40953;SDS011;26686;50.130;8.710;2023-11-18T22:00:56;6.80;;;5.15;;
40953;SDS011;26686;50.130;8.710;2023-11-18T22:05:58;5.60;;;5.10;;
40953;SDS011;26686;50.130;8.710;2023-11-18T22:10:59;5.28;;;4.65;;
40953;SDS011;26686;50.130;8.710;2023-11-18T22:16:02;5.28;;;4.78;;
40953;SDS011;26686;50.130;8.710;2023-11-18T22:21:05;4.13;;;3.80;;
40953;SDS011;26686;50.130;8.710;2023-11-18T22:26:08;4.30;;;3.97;;
40953;SDS011;26686;50.130;8.710;2023-11-18T22:31:12;5.63;;;3.90;;
40953;SDS011;26686;50.130;8.710;2023-11-18T22:36:13;5.88;;;5.28;;
40953;SDS011;26686;50.130;8.710;2023-11-18T22:41:16;5.25;;;4.53;;
40953;SDS011;26686;50.130;8.710;2023-11-18T22:46:18;5.28;;;4.65;;
40953;SDS011;26686;50.130;8.710;2023-11-18T22:51:20;5.20;;;4.38;;
40953;SDS011;26686;50.130;8.710;2023-11-18T22:56:21;5.82;;;4.68;;
40953;SDS011;26686;50.130;8.710;2023-11-18T23:01:24;5.30;;;4.80;;
40953;SDS011;26686;50.130;8.710;2023-11-18T23:06:28;5.50;;;4.63;;
40953;SDS011;26686;50.130;8.710;2023-11-18T23:11:31;6.82;;;4.53;;
40953;SDS011;26686;50.130;8.710;2023-11-18T23:16:32;5.60;;;4.00;;
40953;SDS011;26686;50.130;8.710;2023-11-18T23:21:34;5.13;;;4.45;;
40953;SDS011;26686;50.130;8.710;2023-11-18T23:26:35;5.60;;;4.72;;
40953;SDS011;26686;50.130;8.710;2023-11-18T23:31:37;5.63;;;4.80;;
40953;SDS011;26686;50.130;8.710;2023-11-18T23:36:38;5.35;;;4.85;;
40953;SDS011;26686;50.130;8.710;2023-11-18T23:41:40;4.97;;;4.47;;
40953;SDS011;26686;50.130;8.710;2023-11-18T23:46:41;5.47;;;4.38;;
40953;SDS011;26686;50.130;8.710;2023-11-18T23:51:43;5.60;;;4.50;;
40953;SDS011;26686;50.130;8.710;2023-11-18T23:56:49;5.25;;;4.47;;
